KQBF

Ouagadougou

Ouagadougou, Burkina Faso
METAR KQBF 181356Z AUTO 33003KT 6000 HZ CLR 35/M03 A2984 RMK AO2 SLP059 WND DATA ESTMD T03461035
Observed Flight Rules
Jan-18 @ 13:56 UTC (27 minutes ago) Marginal Visual Flight Rules
Wind Visibility Clouds Conditions
330° at 3 knots 6,003 meters
  • Clear skies
  • Haze
Temperatures Readings
Current 35°C / 95°F
Dewpoint -4°C / 25°F
Humidity 8%
Altimeter 29.84" Hg
Pressure 1005.9 hPa
METAR KQBF 181356Z AUTO 33003KT 6000 HZ CLR 35/M03 A2984 RMK AO2 SLP059 WND DATA ESTMD T03461035
Observed Flight Rules
Jan-18 @ 13:56 UTC
(27 minutes ago)
MVFR
Wind Visibility
330° at 3 knots 6,003 meters
Clouds
  • Clear skies
Conditions
  • Haze
Temperature Dewpoint
35°C / 95°F -4°C / 25°F
Humidity Altimeter Pressure
8% 29.84" Hg 1005.9 hPa